sensor_id;sensor_type;location;lat;lon;timestamp;temperature;humidity
7206;DHT22;3644;53.480;10.004;2024-03-06T00:01:33;7.20;99.90
7206;DHT22;3644;53.480;10.004;2024-03-06T00:03:59;7.00;99.90
7206;DHT22;3644;53.480;10.004;2024-03-06T00:06:25;6.70;99.90
7206;DHT22;3644;53.480;10.004;2024-03-06T00:08:50;6.70;99.90
7206;DHT22;3644;53.480;10.004;2024-03-06T00:11:16;6.50;99.90
7206;DHT22;3644;53.480;10.004;2024-03-06T00:13:42;6.30;99.90
7206;DHT22;3644;53.480;10.004;2024-03-06T00:16:08;6.50;99.90
7206;DHT22;3644;53.480;10.004;2024-03-06T00:18:34;6.60;99.90
7206;DHT22;3644;53.480;10.004;2024-03-06T00:20:59;6.60;99.90
7206;DHT22;3644;53.480;10.004;2024-03-06T00:23:25;6.70;99.90
7206;DHT22;3644;53.480;10.004;2024-03-06T00:25:51;6.60;99.90
7206;DHT22;3644;53.480;10.004;2024-03-06T00:28:16;6.70;99.90
7206;DHT22;3644;53.480;10.004;2024-03-06T00:30:42;6.90;99.90
7206;DHT22;3644;53.480;10.004;2024-03-06T00:33:08;6.80;99.90
7206;DHT22;3644;53.480;10.004;2024-03-06T00:35:33;6.90;99.90
7206;DHT22;3644;53.480;10.004;2024-03-06T00:37:58;6.70;99.90
7206;DHT22;3644;53.480;10.004;2024-03-06T00:40:28;6.70;99.90
7206;DHT22;3644;53.480;10.004;2024-03-06T00:42:56;6.80;99.90
7206;DHT22;3644;53.480;10.004;2024-03-06T00:45:22;6.90;99.90
7206;DHT22;3644;53.480;10.004;2024-03-06T00:47:48;6.70;99.90
7206;DHT22;3644;53.480;10.004;2024-03-06T00:50:13;6.70;99.90
7206;DHT22;3644;53.480;10.004;2024-03-06T00:52:39;6.80;99.90
7206;DHT22;3644;53.480;10.004;2024-03-06T00:55:05;6.90;99.90
7206;DHT22;3644;53.480;10.004;2024-03-06T00:57:31;6.60;99.90
7206;DHT22;3644;53.480;10.004;2024-03-06T00:59:56;6.70;99.90
7206;DHT22;3644;53.480;10.004;2024-03-06T01:02:22;6.90;99.90
7206;DHT22;3644;53.480;10.004;2024-03-06T01:04:47;7.00;99.90
7206;DHT22;3644;53.480;10.004;2024-03-06T01:07:13;6.80;99.90
7206;DHT22;3644;53.480;10.004;2024-03-06T01:09:38;7.00;99.90
7206;DHT22;3644;53.480;10.004;2024-03-06T01:12:04;7.10;99.90
7206;DHT22;3644;53.480;10.004;2024-03-06T01:14:30;6.90;99.90
7206;DHT22;3644;53.480;10.004;2024-03-06T01:16:56;7.20;99.90
7206;DHT22;3644;53.480;10.004;2024-03-06T01:19:23;7.20;99.90
7206;DHT22;3644;53.480;10.004;2024-03-06T01:21:49;6.80;99.90
7206;DHT22;3644;53.480;10.004;2024-03-06T01:24:14;6.80;99.90
7206;DHT22;3644;53.480;10.004;2024-03-06T01:26:40;6.70;99.90
7206;DHT22;3644;53.480;10.004;2024-03-06T01:29:06;6.70;99.90
7206;DHT22;3644;53.480;10.004;2024-03-06T01:31:31;6.90;99.90
7206;DHT22;3644;53.480;10.004;2024-03-06T01:33:57;6.80;99.90
7206;DHT22;3644;53.480;10.004;2024-03-06T01:36:22;6.90;99.90
7206;DHT22;3644;53.480;10.004;2024-03-06T01:38:48;6.90;99.90
7206;DHT22;3644;53.480;10.004;2024-03-06T01:41:14;7.20;99.90
7206;DHT22;3644;53.480;10.004;2024-03-06T01:43:40;7.00;99.90
7206;DHT22;3644;53.480;10.004;2024-03-06T01:46:06;7.10;99.90
7206;DHT22;3644;53.480;10.004;2024-03-06T01:48:33;6.90;99.90
7206;DHT22;3644;53.480;10.004;2024-03-06T01:51:01;7.00;99.90
7206;DHT22;3644;53.480;10.004;2024-03-06T01:53:29;7.00;99.90
7206;DHT22;3644;53.480;10.004;2024-03-06T01:55:56;6.70;99.90
7206;DHT22;3644;53.480;10.004;2024-03-06T01:58:23;6.80;99.90
7206;DHT22;3644;53.480;10.004;2024-03-06T02:00:50;7.00;99.90
7206;DHT22;3644;53.480;10.004;2024-03-06T02:03:17;6.90;99.90
7206;DHT22;3644;53.480;10.004;2024-03-06T02:05:44;6.80;99.90
7206;DHT22;3644;53.480;10.004;2024-03-06T02:08:10;6.60;99.90
7206;DHT22;3644;53.480;10.004;2024-03-06T02:10:35;6.70;99.90
7206;DHT22;3644;53.480;10.004;2024-03-06T02:13:01;6.60;99.90
7206;DHT22;3644;53.480;10.004;2024-03-06T02:15:27;6.90;99.90
7206;DHT22;3644;53.480;10.004;2024-03-06T02:17:52;7.20;99.90
7206;DHT22;3644;53.480;10.004;2024-03-06T02:20:25;7.20;99.90
7206;DHT22;3644;53.480;10.004;2024-03-06T02:22:50;7.30;99.90
7206;DHT22;3644;53.480;10.004;2024-03-06T02:25:16;7.10;99.90
7206;DHT22;3644;53.480;10.004;2024-03-06T02:27:42;7.00;99.90
7206;DHT22;3644;53.480;10.004;2024-03-06T02:30:09;6.90;99.90
7206;DHT22;3644;53.480;10.004;2024-03-06T02:32:34;6.90;99.90
7206;DHT22;3644;53.480;10.004;2024-03-06T02:35:03;6.80;99.90
7206;DHT22;3644;53.480;10.004;2024-03-06T02:37:29;7.20;99.90
7206;DHT22;3644;53.480;10.004;2024-03-06T02:39:54;7.20;99.90
7206;DHT22;3644;53.480;10.004;2024-03-06T02:42:20;7.10;99.90
7206;DHT22;3644;53.480;10.004;2024-03-06T02:44:46;7.20;99.90
7206;DHT22;3644;53.480;10.004;2024-03-06T02:47:11;7.20;99.90
7206;DHT22;3644;53.480;10.004;2024-03-06T02:49:37;7.40;99.90
7206;DHT22;3644;53.480;10.004;2024-03-06T02:52:02;7.10;99.90
7206;DHT22;3644;53.480;10.004;2024-03-06T02:54:28;7.20;99.90
7206;DHT22;3644;53.480;10.004;2024-03-06T02:56:53;7.20;99.90
7206;DHT22;3644;53.480;10.004;2024-03-06T02:59:19;7.30;99.90
7206;DHT22;3644;53.480;10.004;2024-03-06T03:01:45;7.30;99.90
7206;DHT22;3644;53.480;10.004;2024-03-06T03:04:10;7.20;99.90
7206;DHT22;3644;53.480;10.004;2024-03-06T03:06:36;6.90;99.90
7206;DHT22;3644;53.480;10.004;2024-03-06T03:09:02;6.70;99.90
7206;DHT22;3644;53.480;10.004;2024-03-06T03:11:29;6.70;99.90
7206;DHT22;3644;53.480;10.004;2024-03-06T03:13:55;6.70;99.90
7206;DHT22;3644;53.480;10.004;2024-03-06T03:16:21;6.60;99.90
7206;DHT22;3644;53.480;10.004;2024-03-06T03:18:47;6.50;99.90
7206;DHT22;3644;53.480;10.004;2024-03-06T03:21:13;6.70;99.90
7206;DHT22;3644;53.480;10.004;2024-03-06T03:23:39;6.60;99.90
7206;DHT22;3644;53.480;10.004;2024-03-06T03:26:08;6.70;99.90
7206;DHT22;3644;53.480;10.004;2024-03-06T03:28:40;6.70;99.90
7206;DHT22;3644;53.480;10.004;2024-03-06T03:31:09;6.60;99.90
7206;DHT22;3644;53.480;10.004;2024-03-06T03:33:39;6.60;99.90
7206;DHT22;3644;53.480;10.004;2024-03-06T03:36:05;6.80;99.90
7206;DHT22;3644;53.480;10.004;2024-03-06T03:38:32;6.90;99.90
7206;DHT22;3644;53.480;10.004;2024-03-06T03:41:01;6.80;99.90
7206;DHT22;3644;53.480;10.004;2024-03-06T03:43:29;7.00;99.90
7206;DHT22;3644;53.480;10.004;2024-03-06T03:45:55;7.00;99.90
7206;DHT22;3644;53.480;10.004;2024-03-06T03:48:20;6.90;99.90
7206;DHT22;3644;53.480;10.004;2024-03-06T03:50:46;6.90;99.90
7206;DHT22;3644;53.480;10.004;2024-03-06T03:53:11;6.90;99.90
7206;DHT22;3644;53.480;10.004;2024-03-06T03:55:37;6.90;99.90
7206;DHT22;3644;53.480;10.004;2024-03-06T03:58:02;6.90;99.90
7206;DHT22;3644;53.480;10.004;2024-03-06T04:00:28;6.80;99.90
7206;DHT22;3644;53.480;10.004;2024-03-06T04:02:53;6.80;99.90
7206;DHT22;3644;53.480;10.004;2024-03-06T04:05:19;6.60;99.90
7206;DHT22;3644;53.480;10.004;2024-03-06T04:07:44;6.50;99.90
7206;DHT22;3644;53.480;10.004;2024-03-06T04:10:10;6.40;99.90
7206;DHT22;3644;53.480;10.004;2024-03-06T04:12:36;6.40;99.90
7206;DHT22;3644;53.480;10.004;2024-03-06T04:15:03;6.30;99.90
7206;DHT22;3644;53.480;10.004;2024-03-06T04:17:29;6.30;99.90
7206;DHT22;3644;53.480;10.004;2024-03-06T04:19:54;6.30;99.90
7206;DHT22;3644;53.480;10.004;2024-03-06T04:22:20;6.30;99.90
7206;DHT22;3644;53.480;10.004;2024-03-06T04:24:46;6.30;99.90
7206;DHT22;3644;53.480;10.004;2024-03-06T04:27:12;6.30;99.90
7206;DHT22;3644;53.480;10.004;2024-03-06T04:29:37;6.30;99.90
7206;DHT22;3644;53.480;10.004;2024-03-06T04:32:03;6.20;99.90
7206;DHT22;3644;53.480;10.004;2024-03-06T04:34:29;6.30;99.90
7206;DHT22;3644;53.480;10.004;2024-03-06T04:36:54;6.30;99.90
7206;DHT22;3644;53.480;10.004;2024-03-06T04:39:20;6.30;99.90
7206;DHT22;3644;53.480;10.004;2024-03-06T04:41:45;6.20;99.90
7206;DHT22;3644;53.480;10.004;2024-03-06T04:44:11;6.20;99.90
7206;DHT22;3644;53.480;10.004;2024-03-06T04:46:36;6.10;99.90
7206;DHT22;3644;53.480;10.004;2024-03-06T04:49:02;6.10;99.90
7206;DHT22;3644;53.480;10.004;2024-03-06T04:51:28;6.00;99.90
7206;DHT22;3644;53.480;10.004;2024-03-06T04:53:53;6.00;99.90
7206;DHT22;3644;53.480;10.004;2024-03-06T04:56:19;5.90;99.90
7206;DHT22;3644;53.480;10.004;2024-03-06T04:58:46;6.10;99.90
7206;DHT22;3644;53.480;10.004;2024-03-06T05:01:12;6.00;99.90
7206;DHT22;3644;53.480;10.004;2024-03-06T05:03:38;5.90;99.90
7206;DHT22;3644;53.480;10.004;2024-03-06T05:06:04;5.70;99.90
7206;DHT22;3644;53.480;10.004;2024-03-06T05:08:30;5.60;99.90
7206;DHT22;3644;53.480;10.004;2024-03-06T05:10:56;5.80;99.90
7206;DHT22;3644;53.480;10.004;2024-03-06T05:13:22;5.90;99.90
7206;DHT22;3644;53.480;10.004;2024-03-06T05:15:47;5.90;99.90
7206;DHT22;3644;53.480;10.004;2024-03-06T05:18:13;5.90;99.90
7206;DHT22;3644;53.480;10.004;2024-03-06T05:20:38;5.90;99.90
7206;DHT22;3644;53.480;10.004;2024-03-06T05:23:04;5.80;99.90
7206;DHT22;3644;53.480;10.004;2024-03-06T05:25:29;5.80;99.90
7206;DHT22;3644;53.480;10.004;2024-03-06T05:27:55;5.80;99.90
7206;DHT22;3644;53.480;10.004;2024-03-06T05:30:20;5.80;99.90
7206;DHT22;3644;53.480;10.004;2024-03-06T05:32:46;5.70;99.90
7206;DHT22;3644;53.480;10.004;2024-03-06T05:35:12;5.60;99.90
7206;DHT22;3644;53.480;10.004;2024-03-06T05:37:38;5.60;99.90
7206;DHT22;3644;53.480;10.004;2024-03-06T05:40:04;5.60;99.90
7206;DHT22;3644;53.480;10.004;2024-03-06T05:42:33;5.50;99.90
7206;DHT22;3644;53.480;10.004;2024-03-06T05:44:58;5.30;99.90
7206;DHT22;3644;53.480;10.004;2024-03-06T05:47:33;5.20;99.90
7206;DHT22;3644;53.480;10.004;2024-03-06T05:50:00;5.30;99.90
7206;DHT22;3644;53.480;10.004;2024-03-06T05:52:30;5.10;99.90
7206;DHT22;3644;53.480;10.004;2024-03-06T05:54:55;5.10;99.90
7206;DHT22;3644;53.480;10.004;2024-03-06T05:57:21;5.10;99.90
7206;DHT22;3644;53.480;10.004;2024-03-06T05:59:46;5.10;99.90
7206;DHT22;3644;53.480;10.004;2024-03-06T06:02:12;5.10;99.90
7206;DHT22;3644;53.480;10.004;2024-03-06T06:04:37;5.10;99.90
7206;DHT22;3644;53.480;10.004;2024-03-06T06:07:02;5.00;99.90
7206;DHT22;3644;53.480;10.004;2024-03-06T06:09:29;5.00;99.90
7206;DHT22;3644;53.480;10.004;2024-03-06T06:11:54;5.00;99.90
7206;DHT22;3644;53.480;10.004;2024-03-06T06:14:20;5.10;99.90
7206;DHT22;3644;53.480;10.004;2024-03-06T06:16:45;5.00;99.90
7206;DHT22;3644;53.480;10.004;2024-03-06T06:19:11;4.90;99.90
7206;DHT22;3644;53.480;10.004;2024-03-06T06:21:36;4.90;99.90
7206;DHT22;3644;53.480;10.004;2024-03-06T06:24:03;4.90;99.90
7206;DHT22;3644;53.480;10.004;2024-03-06T06:26:29;4.90;99.90
7206;DHT22;3644;53.480;10.004;2024-03-06T06:28:56;5.00;99.90
7206;DHT22;3644;53.480;10.004;2024-03-06T06:31:22;4.90;99.90
7206;DHT22;3644;53.480;10.004;2024-03-06T06:33:49;4.80;99.90
7206;DHT22;3644;53.480;10.004;2024-03-06T06:36:15;4.90;99.90
7206;DHT22;3644;53.480;10.004;2024-03-06T06:38:40;4.80;99.90
7206;DHT22;3644;53.480;10.004;2024-03-06T06:41:05;4.90;99.90
7206;DHT22;3644;53.480;10.004;2024-03-06T06:43:31;5.00;99.90
7206;DHT22;3644;53.480;10.004;2024-03-06T06:45:56;5.00;99.90
7206;DHT22;3644;53.480;10.004;2024-03-06T06:48:22;5.20;99.90
7206;DHT22;3644;53.480;10.004;2024-03-06T06:50:48;5.00;99.90
7206;DHT22;3644;53.480;10.004;2024-03-06T06:53:14;5.00;99.90
7206;DHT22;3644;53.480;10.004;2024-03-06T06:55:39;5.20;99.90
7206;DHT22;3644;53.480;10.004;2024-03-06T06:58:05;5.20;99.90
7206;DHT22;3644;53.480;10.004;2024-03-06T07:00:31;5.30;99.90
7206;DHT22;3644;53.480;10.004;2024-03-06T07:02:58;5.20;99.90
7206;DHT22;3644;53.480;10.004;2024-03-06T07:05:24;5.40;99.90
7206;DHT22;3644;53.480;10.004;2024-03-06T07:07:49;5.40;99.90
7206;DHT22;3644;53.480;10.004;2024-03-06T07:10:15;5.50;99.90
7206;DHT22;3644;53.480;10.004;2024-03-06T07:12:40;5.50;99.90
7206;DHT22;3644;53.480;10.004;2024-03-06T07:15:06;5.50;99.90
7206;DHT22;3644;53.480;10.004;2024-03-06T07:17:32;5.30;99.90
7206;DHT22;3644;53.480;10.004;2024-03-06T07:19:57;5.30;99.90
7206;DHT22;3644;53.480;10.004;2024-03-06T07:22:23;5.40;99.90
7206;DHT22;3644;53.480;10.004;2024-03-06T07:24:49;5.40;99.90
7206;DHT22;3644;53.480;10.004;2024-03-06T07:27:14;5.60;99.90
7206;DHT22;3644;53.480;10.004;2024-03-06T07:29:40;5.60;99.90
7206;DHT22;3644;53.480;10.004;2024-03-06T07:32:05;5.60;99.90
7206;DHT22;3644;53.480;10.004;2024-03-06T07:34:31;5.60;99.90
7206;DHT22;3644;53.480;10.004;2024-03-06T07:36:57;5.60;99.90
7206;DHT22;3644;53.480;10.004;2024-03-06T07:39:26;5.50;99.90
7206;DHT22;3644;53.480;10.004;2024-03-06T07:41:52;5.70;99.90
7206;DHT22;3644;53.480;10.004;2024-03-06T07:44:18;5.60;99.90
7206;DHT22;3644;53.480;10.004;2024-03-06T07:46:45;5.70;99.90
7206;DHT22;3644;53.480;10.004;2024-03-06T07:49:11;5.80;99.90
7206;DHT22;3644;53.480;10.004;2024-03-06T07:51:36;5.90;99.90
7206;DHT22;3644;53.480;10.004;2024-03-06T07:54:02;6.10;99.90
7206;DHT22;3644;53.480;10.004;2024-03-06T07:56:29;6.10;99.90
7206;DHT22;3644;53.480;10.004;2024-03-06T07:58:55;6.20;99.90
7206;DHT22;3644;53.480;10.004;2024-03-06T08:01:21;6.20;99.90
7206;DHT22;3644;53.480;10.004;2024-03-06T08:03:47;6.30;99.90
7206;DHT22;3644;53.480;10.004;2024-03-06T08:06:12;6.30;99.90
7206;DHT22;3644;53.480;10.004;2024-03-06T08:08:42;6.40;99.90
7206;DHT22;3644;53.480;10.004;2024-03-06T08:11:09;6.50;99.90
7206;DHT22;3644;53.480;10.004;2024-03-06T08:13:36;6.50;99.90
7206;DHT22;3644;53.480;10.004;2024-03-06T08:16:02;6.60;99.90
7206;DHT22;3644;53.480;10.004;2024-03-06T08:18:29;6.80;99.90
7206;DHT22;3644;53.480;10.004;2024-03-06T08:20:54;6.80;99.90
7206;DHT22;3644;53.480;10.004;2024-03-06T08:23:20;6.70;99.90
7206;DHT22;3644;53.480;10.004;2024-03-06T08:25:46;6.70;99.90
7206;DHT22;3644;53.480;10.004;2024-03-06T08:28:12;6.80;99.90
7206;DHT22;3644;53.480;10.004;2024-03-06T08:30:37;6.90;99.90
7206;DHT22;3644;53.480;10.004;2024-03-06T08:33:03;6.90;99.90
7206;DHT22;3644;53.480;10.004;2024-03-06T08:35:29;7.10;99.90
7206;DHT22;3644;53.480;10.004;2024-03-06T08:37:55;7.10;99.90
7206;DHT22;3644;53.480;10.004;2024-03-06T08:40:20;7.00;99.90
7206;DHT22;3644;53.480;10.004;2024-03-06T08:42:47;7.10;99.90
7206;DHT22;3644;53.480;10.004;2024-03-06T08:45:13;7.10;99.90
7206;DHT22;3644;53.480;10.004;2024-03-06T08:47:40;7.30;99.90
7206;DHT22;3644;53.480;10.004;2024-03-06T08:50:06;7.50;99.90
7206;DHT22;3644;53.480;10.004;2024-03-06T08:52:33;7.40;99.90
7206;DHT22;3644;53.480;10.004;2024-03-06T08:55:00;7.50;99.90
7206;DHT22;3644;53.480;10.004;2024-03-06T08:57:26;7.50;99.90
7206;DHT22;3644;53.480;10.004;2024-03-06T08:59:54;7.50;99.90
7206;DHT22;3644;53.480;10.004;2024-03-06T09:02:19;7.60;99.90
7206;DHT22;3644;53.480;10.004;2024-03-06T09:04:46;7.90;99.90
7206;DHT22;3644;53.480;10.004;2024-03-06T09:07:12;7.90;99.90
7206;DHT22;3644;53.480;10.004;2024-03-06T09:09:38;7.70;99.90
7206;DHT22;3644;53.480;10.004;2024-03-06T09:12:04;7.70;99.90
7206;DHT22;3644;53.480;10.004;2024-03-06T09:14:33;7.70;99.90
7206;DHT22;3644;53.480;10.004;2024-03-06T09:16:59;7.70;99.90
7206;DHT22;3644;53.480;10.004;2024-03-06T09:19:25;7.70;99.90
7206;DHT22;3644;53.480;10.004;2024-03-06T09:21:51;7.80;99.90
7206;DHT22;3644;53.480;10.004;2024-03-06T09:24:17;7.80;99.90
7206;DHT22;3644;53.480;10.004;2024-03-06T09:26:43;7.90;99.90
7206;DHT22;3644;53.480;10.004;2024-03-06T09:29:09;8.10;99.90
7206;DHT22;3644;53.480;10.004;2024-03-06T09:31:35;8.20;99.90
7206;DHT22;3644;53.480;10.004;2024-03-06T09:34:02;8.20;99.90
7206;DHT22;3644;53.480;10.004;2024-03-06T09:36:27;8.30;99.90
7206;DHT22;3644;53.480;10.004;2024-03-06T09:38:53;8.40;99.90
7206;DHT22;3644;53.480;10.004;2024-03-06T09:41:18;8.40;99.90
7206;DHT22;3644;53.480;10.004;2024-03-06T09:43:47;8.40;99.90
7206;DHT22;3644;53.480;10.004;2024-03-06T09:46:13;8.70;99.90
7206;DHT22;3644;53.480;10.004;2024-03-06T09:48:46;8.70;99.90
7206;DHT22;3644;53.480;10.004;2024-03-06T09:51:12;8.70;99.90
7206;DHT22;3644;53.480;10.004;2024-03-06T09:53:38;8.50;99.90
7206;DHT22;3644;53.480;10.004;2024-03-06T09:56:05;8.10;99.90
7206;DHT22;3644;53.480;10.004;2024-03-06T09:58:35;8.30;99.90
7206;DHT22;3644;53.480;10.004;2024-03-06T10:01:01;8.50;99.90
7206;DHT22;3644;53.480;10.004;2024-03-06T10:03:29;8.60;99.90
7206;DHT22;3644;53.480;10.004;2024-03-06T10:05:54;8.50;99.90
7206;DHT22;3644;53.480;10.004;2024-03-06T10:08:21;8.50;99.90
7206;DHT22;3644;53.480;10.004;2024-03-06T10:10:49;8.70;99.90
7206;DHT22;3644;53.480;10.004;2024-03-06T10:13:16;8.70;99.90
7206;DHT22;3644;53.480;10.004;2024-03-06T10:15:48;8.60;99.90
7206;DHT22;3644;53.480;10.004;2024-03-06T10:18:20;8.70;99.90
7206;DHT22;3644;53.480;10.004;2024-03-06T10:20:45;8.90;99.90
7206;DHT22;3644;53.480;10.004;2024-03-06T10:23:12;9.00;99.90
7206;DHT22;3644;53.480;10.004;2024-03-06T10:25:37;9.20;99.90
7206;DHT22;3644;53.480;10.004;2024-03-06T10:28:10;9.30;99.90
7206;DHT22;3644;53.480;10.004;2024-03-06T10:30:38;9.40;99.90
7206;DHT22;3644;53.480;10.004;2024-03-06T10:33:07;9.40;99.90
7206;DHT22;3644;53.480;10.004;2024-03-06T10:35:36;9.60;99.90
7206;DHT22;3644;53.480;10.004;2024-03-06T10:38:03;9.70;99.90
7206;DHT22;3644;53.480;10.004;2024-03-06T10:40:33;9.60;99.90
7206;DHT22;3644;53.480;10.004;2024-03-06T10:43:00;9.50;99.90
7206;DHT22;3644;53.480;10.004;2024-03-06T10:45:34;9.60;99.90
7206;DHT22;3644;53.480;10.004;2024-03-06T10:48:04;9.50;99.90
7206;DHT22;3644;53.480;10.004;2024-03-06T10:50:31;9.70;99.90
7206;DHT22;3644;53.480;10.004;2024-03-06T10:52:57;9.80;99.90
7206;DHT22;3644;53.480;10.004;2024-03-06T10:55:24;9.90;99.90
7206;DHT22;3644;53.480;10.004;2024-03-06T10:57:52;9.80;99.90
7206;DHT22;3644;53.480;10.004;2024-03-06T11:00:19;9.70;99.90
7206;DHT22;3644;53.480;10.004;2024-03-06T11:02:48;9.90;99.90
7206;DHT22;3644;53.480;10.004;2024-03-06T11:05:16;9.90;99.90
7206;DHT22;3644;53.480;10.004;2024-03-06T11:07:42;9.70;99.90
7206;DHT22;3644;53.480;10.004;2024-03-06T11:10:09;9.90;99.90
7206;DHT22;3644;53.480;10.004;2024-03-06T11:12:42;10.20;99.90
7206;DHT22;3644;53.480;10.004;2024-03-06T11:15:14;10.30;99.90
7206;DHT22;3644;53.480;10.004;2024-03-06T11:17:39;9.80;99.90
7206;DHT22;3644;53.480;10.004;2024-03-06T11:28:18;9.50;99.90
7206;DHT22;3644;53.480;10.004;2024-03-06T11:33:19;9.40;99.90
7206;DHT22;3644;53.480;10.004;2024-03-06T11:36:17;9.30;99.90
7206;DHT22;3644;53.480;10.004;2024-03-06T11:38:52;9.20;99.90
7206;DHT22;3644;53.480;10.004;2024-03-06T11:41:20;9.60;99.90
7206;DHT22;3644;53.480;10.004;2024-03-06T11:43:48;10.10;99.90
7206;DHT22;3644;53.480;10.004;2024-03-06T11:46:15;10.20;99.90
7206;DHT22;3644;53.480;10.004;2024-03-06T11:48:42;10.30;99.90
7206;DHT22;3644;53.480;10.004;2024-03-06T11:51:09;10.50;99.90
7206;DHT22;3644;53.480;10.004;2024-03-06T11:53:34;10.30;99.90
7206;DHT22;3644;53.480;10.004;2024-03-06T11:56:01;10.30;99.90
7206;DHT22;3644;53.480;10.004;2024-03-06T11:58:27;10.40;99.90
7206;DHT22;3644;53.480;10.004;2024-03-06T12:00:53;10.60;99.90
7206;DHT22;3644;53.480;10.004;2024-03-06T12:03:20;10.60;99.90
7206;DHT22;3644;53.480;10.004;2024-03-06T12:05:46;10.60;99.90
7206;DHT22;3644;53.480;10.004;2024-03-06T12:08:11;10.80;99.90
7206;DHT22;3644;53.480;10.004;2024-03-06T12:10:38;10.70;99.90
7206;DHT22;3644;53.480;10.004;2024-03-06T12:13:04;10.70;99.90
7206;DHT22;3644;53.480;10.004;2024-03-06T12:15:30;10.80;99.90
7206;DHT22;3644;53.480;10.004;2024-03-06T12:17:56;10.70;99.90
7206;DHT22;3644;53.480;10.004;2024-03-06T12:20:21;10.90;99.90
7206;DHT22;3644;53.480;10.004;2024-03-06T12:22:50;11.00;99.90
7206;DHT22;3644;53.480;10.004;2024-03-06T12:25:20;10.90;99.90
7206;DHT22;3644;53.480;10.004;2024-03-06T12:27:46;10.50;99.90
7206;DHT22;3644;53.480;10.004;2024-03-06T12:30:16;10.40;99.90
7206;DHT22;3644;53.480;10.004;2024-03-06T12:32:58;10.60;99.90
7206;DHT22;3644;53.480;10.004;2024-03-06T12:35:27;10.90;99.90
7206;DHT22;3644;53.480;10.004;2024-03-06T12:37:53;11.10;99.90
7206;DHT22;3644;53.480;10.004;2024-03-06T12:40:19;11.40;99.90
7206;DHT22;3644;53.480;10.004;2024-03-06T12:42:45;11.50;99.90
7206;DHT22;3644;53.480;10.004;2024-03-06T12:45:11;11.30;99.90
7206;DHT22;3644;53.480;10.004;2024-03-06T12:47:43;11.30;99.90
7206;DHT22;3644;53.480;10.004;2024-03-06T12:50:10;10.90;99.90
7206;DHT22;3644;53.480;10.004;2024-03-06T12:52:36;11.00;99.90
7206;DHT22;3644;53.480;10.004;2024-03-06T12:55:02;11.30;99.90
7206;DHT22;3644;53.480;10.004;2024-03-06T12:57:31;11.50;99.90
7206;DHT22;3644;53.480;10.004;2024-03-06T12:59:56;11.60;99.90
7206;DHT22;3644;53.480;10.004;2024-03-06T13:02:22;11.70;99.90
7206;DHT22;3644;53.480;10.004;2024-03-06T13:04:47;11.80;99.90
7206;DHT22;3644;53.480;10.004;2024-03-06T13:07:13;11.90;99.90
7206;DHT22;3644;53.480;10.004;2024-03-06T13:09:39;11.80;99.90
7206;DHT22;3644;53.480;10.004;2024-03-06T13:12:05;11.90;99.90
7206;DHT22;3644;53.480;10.004;2024-03-06T13:14:31;12.10;99.90
7206;DHT22;3644;53.480;10.004;2024-03-06T13:16:57;12.00;99.90
7206;DHT22;3644;53.480;10.004;2024-03-06T13:19:23;12.20;99.90
7206;DHT22;3644;53.480;10.004;2024-03-06T13:21:48;12.30;99.90
7206;DHT22;3644;53.480;10.004;2024-03-06T13:24:14;12.40;99.90
7206;DHT22;3644;53.480;10.004;2024-03-06T13:26:39;12.30;99.90
7206;DHT22;3644;53.480;10.004;2024-03-06T13:29:06;12.50;99.90
7206;DHT22;3644;53.480;10.004;2024-03-06T13:31:32;12.50;99.90
7206;DHT22;3644;53.480;10.004;2024-03-06T13:33:59;12.80;99.90
7206;DHT22;3644;53.480;10.004;2024-03-06T13:36:25;12.90;99.90
7206;DHT22;3644;53.480;10.004;2024-03-06T13:38:51;13.00;99.90
7206;DHT22;3644;53.480;10.004;2024-03-06T13:41:17;13.10;99.90
7206;DHT22;3644;53.480;10.004;2024-03-06T13:43:42;12.90;99.90
7206;DHT22;3644;53.480;10.004;2024-03-06T13:46:08;12.40;99.90
7206;DHT22;3644;53.480;10.004;2024-03-06T13:48:34;12.10;99.90
7206;DHT22;3644;53.480;10.004;2024-03-06T13:50:59;12.20;99.90
7206;DHT22;3644;53.480;10.004;2024-03-06T13:53:25;12.50;99.90
7206;DHT22;3644;53.480;10.004;2024-03-06T13:55:51;12.70;99.90
7206;DHT22;3644;53.480;10.004;2024-03-06T13:58:17;12.80;99.90
7206;DHT22;3644;53.480;10.004;2024-03-06T14:00:43;12.60;99.90
7206;DHT22;3644;53.480;10.004;2024-03-06T14:03:09;12.00;99.90
7206;DHT22;3644;53.480;10.004;2024-03-06T14:05:37;11.40;99.90
7206;DHT22;3644;53.480;10.004;2024-03-06T14:08:03;11.80;99.90
7206;DHT22;3644;53.480;10.004;2024-03-06T14:10:29;12.00;99.90
7206;DHT22;3644;53.480;10.004;2024-03-06T14:12:59;12.10;99.90
7206;DHT22;3644;53.480;10.004;2024-03-06T14:15:24;11.90;99.90
7206;DHT22;3644;53.480;10.004;2024-03-06T14:17:51;11.90;99.90
7206;DHT22;3644;53.480;10.004;2024-03-06T14:20:19;12.20;99.90
7206;DHT22;3644;53.480;10.004;2024-03-06T14:22:44;12.40;99.90
7206;DHT22;3644;53.480;10.004;2024-03-06T14:25:10;12.40;99.90
7206;DHT22;3644;53.480;10.004;2024-03-06T14:27:36;12.10;99.90
7206;DHT22;3644;53.480;10.004;2024-03-06T14:30:03;12.00;99.90
7206;DHT22;3644;53.480;10.004;2024-03-06T14:32:29;12.10;99.90
7206;DHT22;3644;53.480;10.004;2024-03-06T14:34:54;12.10;99.90
7206;DHT22;3644;53.480;10.004;2024-03-06T14:37:20;12.30;99.90
7206;DHT22;3644;53.480;10.004;2024-03-06T14:39:45;12.00;99.90
7206;DHT22;3644;53.480;10.004;2024-03-06T14:42:11;11.70;99.90
7206;DHT22;3644;53.480;10.004;2024-03-06T14:44:37;11.60;99.90
7206;DHT22;3644;53.480;10.004;2024-03-06T14:47:02;11.70;99.90
7206;DHT22;3644;53.480;10.004;2024-03-06T14:49:28;11.70;99.90
7206;DHT22;3644;53.480;10.004;2024-03-06T14:51:53;11.70;99.90
7206;DHT22;3644;53.480;10.004;2024-03-06T14:54:21;11.60;99.90
7206;DHT22;3644;53.480;10.004;2024-03-06T14:56:48;11.30;99.90
7206;DHT22;3644;53.480;10.004;2024-03-06T14:59:14;10.90;99.90
7206;DHT22;3644;53.480;10.004;2024-03-06T15:01:39;10.70;99.90
7206;DHT22;3644;53.480;10.004;2024-03-06T15:04:05;10.70;99.90
7206;DHT22;3644;53.480;10.004;2024-03-06T15:06:30;10.90;99.90
7206;DHT22;3644;53.480;10.004;2024-03-06T15:08:56;10.90;99.90
7206;DHT22;3644;53.480;10.004;2024-03-06T15:11:21;11.30;99.90
7206;DHT22;3644;53.480;10.004;2024-03-06T15:13:50;10.80;99.90
7206;DHT22;3644;53.480;10.004;2024-03-06T15:16:16;10.40;99.90
7206;DHT22;3644;53.480;10.004;2024-03-06T15:18:41;10.70;99.90
7206;DHT22;3644;53.480;10.004;2024-03-06T15:21:07;10.50;99.90
7206;DHT22;3644;53.480;10.004;2024-03-06T15:23:34;10.20;99.90
7206;DHT22;3644;53.480;10.004;2024-03-06T15:25:59;9.90;99.90
7206;DHT22;3644;53.480;10.004;2024-03-06T15:28:25;9.80;99.90
7206;DHT22;3644;53.480;10.004;2024-03-06T15:30:50;9.70;99.90
7206;DHT22;3644;53.480;10.004;2024-03-06T15:33:16;9.70;99.90
7206;DHT22;3644;53.480;10.004;2024-03-06T15:35:42;9.80;99.90
7206;DHT22;3644;53.480;10.004;2024-03-06T15:38:08;9.90;99.90
7206;DHT22;3644;53.480;10.004;2024-03-06T15:40:35;10.10;99.90
7206;DHT22;3644;53.480;10.004;2024-03-06T15:43:00;10.40;99.90
7206;DHT22;3644;53.480;10.004;2024-03-06T15:45:26;10.40;99.90
7206;DHT22;3644;53.480;10.004;2024-03-06T15:47:52;10.30;99.90
7206;DHT22;3644;53.480;10.004;2024-03-06T15:50:17;10.20;99.90
7206;DHT22;3644;53.480;10.004;2024-03-06T15:52:42;10.30;99.90
7206;DHT22;3644;53.480;10.004;2024-03-06T15:55:08;10.30;99.90
7206;DHT22;3644;53.480;10.004;2024-03-06T15:57:37;10.20;99.90
7206;DHT22;3644;53.480;10.004;2024-03-06T16:00:04;10.10;99.90
7206;DHT22;3644;53.480;10.004;2024-03-06T16:02:31;10.10;99.90